createdAt,value
2019-01-27T00:00:42.108Z,993.70
2019-01-27T00:01:42.093Z,993.66
2019-01-27T00:02:42.075Z,993.65
2019-01-27T00:03:42.063Z,993.59
2019-01-27T00:04:42.054Z,993.61
2019-01-27T00:05:42.042Z,993.65
2019-01-27T00:06:42.355Z,993.59
2019-01-27T00:07:42.021Z,993.59
2019-01-27T00:08:42.010Z,993.59
2019-01-27T00:09:41.997Z,993.57
2019-01-27T00:10:41.987Z,993.59
2019-01-27T00:11:41.975Z,993.55
2019-01-27T00:12:41.984Z,993.52
2019-01-27T00:13:41.957Z,993.54
2019-01-27T00:14:41.942Z,993.54
2019-01-27T00:15:41.930Z,993.56
2019-01-27T00:16:41.919Z,993.53
2019-01-27T00:17:41.907Z,993.57
2019-01-27T00:18:41.905Z,993.54
2019-01-27T00:19:41.886Z,993.54
2019-01-27T00:20:41.878Z,993.54
2019-01-27T00:21:41.864Z,993.53
2019-01-27T00:22:41.854Z,993.52
2019-01-27T00:23:41.840Z,993.52
2019-01-27T00:24:41.836Z,993.49
2019-01-27T00:25:41.819Z,993.49
2019-01-27T00:26:41.807Z,993.49
2019-01-27T00:27:41.796Z,993.48
2019-01-27T00:28:41.784Z,993.48
2019-01-27T00:29:41.773Z,993.48
2019-01-27T00:30:42.051Z,993.48
2019-01-27T00:31:41.752Z,993.47
2019-01-27T00:32:41.741Z,993.45
2019-01-27T00:33:41.729Z,993.46
2019-01-27T00:34:41.721Z,993.49
2019-01-27T00:35:41.707Z,993.45
2019-01-27T00:36:42.864Z,993.45
2019-01-27T00:37:41.685Z,993.41
2019-01-27T00:38:41.676Z,993.40
2019-01-27T00:39:41.663Z,993.40
2019-01-27T00:40:41.651Z,993.38
2019-01-27T00:41:41.641Z,993.42
2019-01-27T00:42:41.651Z,993.36
2019-01-27T00:43:41.618Z,993.34
2019-01-27T00:44:41.607Z,993.31
2019-01-27T00:45:41.596Z,993.31
2019-01-27T00:46:41.585Z,993.33
2019-01-27T00:47:41.574Z,993.32
2019-01-27T00:48:41.569Z,993.30
2019-01-27T00:49:41.551Z,993.25
2019-01-27T00:50:41.541Z,993.26
2019-01-27T00:51:41.530Z,993.30
2019-01-27T00:52:41.518Z,993.25
2019-01-27T00:53:41.508Z,993.25
2019-01-27T00:54:41.504Z,993.25
2019-01-27T00:55:41.485Z,993.22
2019-01-27T00:56:41.474Z,993.21
2019-01-27T00:57:41.463Z,993.21
2019-01-27T00:58:41.451Z,993.16
2019-01-27T00:59:41.439Z,993.19
2019-01-27T01:00:41.438Z,993.12
2019-01-27T01:01:41.419Z,993.16
2019-01-27T01:02:41.407Z,993.14
2019-01-27T01:03:41.399Z,993.14
2019-01-27T01:04:41.385Z,993.14
2019-01-27T01:05:41.374Z,993.16
2019-01-27T01:06:41.657Z,993.14
2019-01-27T01:07:41.353Z,993.17
2019-01-27T01:08:41.341Z,993.13
2019-01-27T01:09:41.332Z,993.13
2019-01-27T01:10:41.319Z,993.13
2019-01-27T01:11:41.310Z,993.08
2019-01-27T01:12:41.316Z,993.07
2019-01-27T01:13:41.286Z,993.03
2019-01-27T01:14:41.273Z,993.07
2019-01-27T01:15:41.265Z,993.08
2019-01-27T01:16:41.251Z,993.04
2019-01-27T01:17:41.244Z,992.95
2019-01-27T01:18:41.560Z,992.96
2019-01-27T01:19:41.219Z,992.87
2019-01-27T01:20:41.208Z,992.90
2019-01-27T01:21:41.195Z,992.86
2019-01-27T01:22:41.186Z,992.85
2019-01-27T01:23:41.172Z,992.87
2019-01-27T01:24:41.170Z,992.87
2019-01-27T01:25:41.150Z,992.79
2019-01-27T01:26:41.139Z,992.80
2019-01-27T01:27:41.129Z,992.78
2019-01-27T01:28:41.117Z,992.79
2019-01-27T01:29:41.106Z,992.77
2019-01-27T01:30:41.116Z,992.73
2019-01-27T01:31:41.083Z,992.75
2019-01-27T01:32:41.073Z,992.71
2019-01-27T01:33:41.061Z,992.70
2019-01-27T01:34:41.052Z,992.70
2019-01-27T01:35:41.039Z,992.70
2019-01-27T01:36:41.036Z,992.64
2019-01-27T01:37:41.017Z,992.68
2019-01-27T01:38:41.007Z,992.63
2019-01-27T01:39:40.994Z,992.66
2019-01-27T01:40:40.984Z,992.62
2019-01-27T01:41:40.974Z,992.66
2019-01-27T01:42:41.259Z,992.60
2019-01-27T01:43:40.951Z,992.56
2019-01-27T01:44:40.940Z,992.54
2019-01-27T01:45:40.929Z,992.51
2019-01-27T01:46:40.917Z,992.47
2019-01-27T01:47:40.906Z,992.44
2019-01-27T01:48:41.228Z,992.45
2019-01-27T01:49:40.921Z,992.37
2019-01-27T01:50:40.874Z,992.37
2019-01-27T01:51:40.861Z,992.33
2019-01-27T01:52:40.853Z,992.29
2019-01-27T01:53:40.838Z,992.28
2019-01-27T01:54:40.836Z,992.21
2019-01-27T01:55:40.818Z,992.22
2019-01-27T01:56:40.806Z,992.16
2019-01-27T01:57:40.794Z,992.18
2019-01-27T01:58:40.783Z,992.10
2019-01-27T01:59:40.772Z,992.13
2019-01-27T02:00:40.768Z,992.10
2019-01-27T02:01:40.750Z,992.04
2019-01-27T02:02:40.739Z,992.08
2019-01-27T02:03:40.729Z,992.06
2019-01-27T02:04:40.717Z,992.08
2019-01-27T02:05:40.705Z,992.05
2019-01-27T02:06:40.702Z,992.00
2019-01-27T02:07:40.691Z,992.00
2019-01-27T02:08:40.674Z,991.97
2019-01-27T02:09:40.660Z,991.99
2019-01-27T02:10:40.651Z,991.94
2019-01-27T02:11:40.639Z,991.96
2019-01-27T02:12:40.634Z,991.91
2019-01-27T02:13:40.617Z,991.92
2019-01-27T02:14:40.606Z,991.87
2019-01-27T02:15:40.595Z,991.84
2019-01-27T02:16:40.584Z,991.80
2019-01-27T02:17:40.572Z,991.81
2019-01-27T02:18:40.835Z,991.78
2019-01-27T02:19:40.551Z,991.78
2019-01-27T02:20:40.541Z,991.79
2019-01-27T02:21:40.534Z,991.73
2019-01-27T02:22:40.517Z,991.73
2019-01-27T02:23:40.505Z,991.69
2019-01-27T02:24:40.827Z,991.70
2019-01-27T02:25:40.484Z,991.69
2019-01-27T02:26:40.472Z,991.66
2019-01-27T02:27:40.461Z,991.66
2019-01-27T02:28:40.450Z,991.64
2019-01-27T02:29:40.441Z,991.59
2019-01-27T02:30:40.451Z,991.59
2019-01-27T02:31:40.416Z,991.54
2019-01-27T02:32:40.406Z,991.52
2019-01-27T02:33:40.396Z,991.49
2019-01-27T02:34:40.383Z,991.49
2019-01-27T02:35:40.374Z,991.51
2019-01-27T02:36:40.368Z,991.47
2019-01-27T02:37:40.350Z,991.45
2019-01-27T02:38:40.339Z,991.44
2019-01-27T02:39:40.329Z,991.42
2019-01-27T02:40:40.317Z,991.40
2019-01-27T02:41:40.305Z,991.38
2019-01-27T02:42:40.302Z,991.39
2019-01-27T02:43:40.283Z,991.35
2019-01-27T02:44:40.279Z,991.31
2019-01-27T02:45:40.262Z,991.30
2019-01-27T02:46:40.251Z,991.25
2019-01-27T02:47:40.247Z,991.27
2019-01-27T02:48:41.362Z,991.16
2019-01-27T02:49:40.216Z,991.15
2019-01-27T02:50:40.208Z,991.13
2019-01-27T02:51:40.197Z,991.10
2019-01-27T02:52:40.183Z,991.07
2019-01-27T02:53:40.172Z,991.07
2019-01-27T02:54:40.169Z,991.07
2019-01-27T02:55:40.151Z,991.04
2019-01-27T02:56:40.138Z,990.97
2019-01-27T02:57:40.128Z,990.93
2019-01-27T02:58:40.124Z,990.90
2019-01-27T02:59:40.105Z,990.86
2019-01-27T03:00:40.421Z,990.83
2019-01-27T03:01:40.083Z,990.79
2019-01-27T03:02:40.073Z,990.77
2019-01-27T03:03:40.062Z,990.78
2019-01-27T03:04:40.053Z,990.76
2019-01-27T03:05:40.039Z,990.75
2019-01-27T03:06:40.047Z,990.68
2019-01-27T03:07:40.016Z,990.65
2019-01-27T03:08:40.005Z,990.66
2019-01-27T03:09:39.993Z,990.66
2019-01-27T03:10:39.982Z,990.63
2019-01-27T03:11:39.972Z,990.61
2019-01-27T03:12:40.009Z,990.59
2019-01-27T03:13:39.950Z,990.61
2019-01-27T03:14:39.938Z,990.58
2019-01-27T03:15:39.929Z,990.58
2019-01-27T03:16:39.917Z,990.56
2019-01-27T03:17:39.906Z,990.58
2019-01-27T03:18:39.899Z,990.53
2019-01-27T03:19:39.884Z,990.52
2019-01-27T03:20:39.874Z,990.52
2019-01-27T03:21:39.862Z,990.53
2019-01-27T03:22:39.849Z,990.50
2019-01-27T03:23:39.837Z,990.53
2019-01-27T03:24:40.112Z,990.49
2019-01-27T03:25:39.815Z,990.49
2019-01-27T03:26:39.804Z,990.46
2019-01-27T03:27:39.794Z,990.44
2019-01-27T03:28:39.783Z,990.45
2019-01-27T03:29:39.772Z,990.45
2019-01-27T03:30:39.792Z,990.41
2019-01-27T03:31:39.750Z,990.45
2019-01-27T03:32:39.740Z,990.41
2019-01-27T03:33:39.727Z,990.38
2019-01-27T03:34:39.716Z,990.41
2019-01-27T03:35:39.706Z,990.39
2019-01-27T03:36:40.017Z,990.39
2019-01-27T03:37:39.689Z,990.38
2019-01-27T03:38:39.673Z,990.36
2019-01-27T03:39:39.661Z,990.32
2019-01-27T03:40:39.650Z,990.31
2019-01-27T03:41:39.638Z,990.29
2019-01-27T03:42:39.635Z,990.28
2019-01-27T03:43:39.615Z,990.30
2019-01-27T03:44:39.606Z,990.30
2019-01-27T03:45:39.598Z,990.28
2019-01-27T03:46:39.585Z,990.18
2019-01-27T03:47:39.574Z,990.15
2019-01-27T03:48:39.568Z,990.17
2019-01-27T03:49:39.551Z,990.24
2019-01-27T03:50:39.539Z,990.25
2019-01-27T03:51:39.526Z,990.16
2019-01-27T03:52:39.518Z,990.19
2019-01-27T03:53:39.505Z,990.19
2019-01-27T03:54:41.362Z,990.18
2019-01-27T03:55:39.487Z,990.14
2019-01-27T03:56:39.470Z,990.16
2019-01-27T03:57:39.460Z,990.17
2019-01-27T03:58:39.449Z,990.13
2019-01-27T03:59:39.440Z,990.11
2019-01-27T04:00:39.447Z,990.12
2019-01-27T04:01:39.415Z,990.04
2019-01-27T04:02:39.407Z,990.07
2019-01-27T04:03:39.394Z,990.03
2019-01-27T04:04:39.382Z,990.00
2019-01-27T04:05:39.372Z,989.95
2019-01-27T04:06:39.381Z,989.96
2019-01-27T04:07:39.350Z,989.92
2019-01-27T04:08:39.338Z,989.91
2019-01-27T04:09:39.326Z,989.87
2019-01-27T04:10:39.323Z,989.90
2019-01-27T04:11:39.317Z,989.82
2019-01-27T04:12:39.312Z,989.82
2019-01-27T04:13:39.281Z,989.77
2019-01-27T04:14:39.270Z,989.83
2019-01-27T04:15:39.259Z,989.75
2019-01-27T04:16:39.253Z,989.66
2019-01-27T04:17:39.237Z,989.70
2019-01-27T04:18:39.551Z,989.64
2019-01-27T04:19:39.217Z,989.63
2019-01-27T04:20:39.210Z,989.58
2019-01-27T04:21:39.198Z,989.61
2019-01-27T04:22:39.181Z,989.59
2019-01-27T04:23:39.169Z,989.57
2019-01-27T04:24:39.166Z,989.56
2019-01-27T04:25:39.150Z,989.53
2019-01-27T04:26:39.137Z,989.54
2019-01-27T04:27:39.125Z,989.49
2019-01-27T04:28:39.113Z,989.44
2019-01-27T04:29:39.103Z,989.41
2019-01-27T04:30:39.385Z,989.39
2019-01-27T04:31:39.081Z,989.40
2019-01-27T04:32:39.070Z,989.43
2019-01-27T04:33:39.060Z,989.40
2019-01-27T04:34:39.049Z,989.40
2019-01-27T04:35:39.036Z,989.39
2019-01-27T04:36:39.046Z,989.40
2019-01-27T04:37:39.013Z,989.42
2019-01-27T04:38:39.003Z,989.39
2019-01-27T04:39:38.991Z,989.35
2019-01-27T04:40:38.981Z,989.35
2019-01-27T04:41:38.969Z,989.34
2019-01-27T04:42:38.966Z,989.28
2019-01-27T04:43:38.948Z,989.29
2019-01-27T04:44:38.936Z,989.30
2019-01-27T04:45:38.927Z,989.30
2019-01-27T04:46:38.920Z,989.23
2019-01-27T04:47:38.904Z,989.20
2019-01-27T04:48:38.913Z,989.20
2019-01-27T04:49:38.881Z,989.26
2019-01-27T04:50:38.870Z,989.19
2019-01-27T04:51:38.858Z,989.15
2019-01-27T04:52:38.862Z,989.14
2019-01-27T04:53:38.837Z,989.16
2019-01-27T04:54:39.147Z,989.12
2019-01-27T04:55:38.815Z,989.13
2019-01-27T04:56:38.806Z,989.06
2019-01-27T04:57:38.791Z,989.09
2019-01-27T04:58:38.781Z,989.06
2019-01-27T04:59:38.771Z,989.05
2019-01-27T05:00:38.769Z,989.05
2019-01-27T05:01:38.748Z,989.08
2019-01-27T05:02:38.736Z,989.06
2019-01-27T05:03:38.727Z,989.03
2019-01-27T05:04:38.721Z,989.03
2019-01-27T05:05:38.703Z,989.01
2019-01-27T05:06:38.978Z,989.05
2019-01-27T05:07:38.683Z,988.99
2019-01-27T05:08:38.671Z,988.98
2019-01-27T05:09:38.660Z,989.02
2019-01-27T05:10:38.647Z,989.02
2019-01-27T05:11:38.635Z,989.06
2019-01-27T05:12:38.633Z,989.02
2019-01-27T05:13:38.617Z,988.98
2019-01-27T05:14:38.604Z,988.92
2019-01-27T05:15:38.592Z,988.89
2019-01-27T05:16:38.581Z,988.90
2019-01-27T05:17:38.572Z,988.83
2019-01-27T05:18:38.564Z,988.84
2019-01-27T05:19:38.549Z,988.85
2019-01-27T05:20:38.536Z,988.84
2019-01-27T05:21:38.525Z,988.79
2019-01-27T05:22:38.514Z,988.78
2019-01-27T05:23:38.502Z,988.77
2019-01-27T05:24:38.814Z,988.78
2019-01-27T05:25:38.481Z,988.74
2019-01-27T05:26:38.469Z,988.74
2019-01-27T05:27:38.458Z,988.72
2019-01-27T05:28:38.449Z,988.68
2019-01-27T05:29:38.436Z,988.71
2019-01-27T05:30:40.119Z,988.67
2019-01-27T05:31:38.413Z,988.70
2019-01-27T05:32:38.403Z,988.67
2019-01-27T05:33:38.393Z,988.67
2019-01-27T05:34:38.386Z,988.66
2019-01-27T05:35:38.376Z,988.65
2019-01-27T05:36:38.381Z,988.62
2019-01-27T05:37:38.347Z,988.61
2019-01-27T05:38:38.336Z,988.58
2019-01-27T05:39:38.326Z,988.52
2019-01-27T05:40:38.313Z,988.54
2019-01-27T05:41:38.302Z,988.52
2019-01-27T05:42:38.563Z,988.50
2019-01-27T05:43:38.281Z,988.52
2019-01-27T05:44:38.269Z,988.44
2019-01-27T05:45:38.258Z,988.52
2019-01-27T05:46:38.246Z,988.45
2019-01-27T05:47:38.235Z,988.48
2019-01-27T05:48:38.232Z,988.41
2019-01-27T05:49:38.213Z,988.41
2019-01-27T05:50:38.205Z,988.40
2019-01-27T05:51:38.193Z,988.45
2019-01-27T05:52:38.180Z,988.43
2019-01-27T05:53:38.169Z,988.41
2019-01-27T05:54:38.167Z,988.37
2019-01-27T05:55:38.147Z,988.42
2019-01-27T05:56:38.138Z,988.41
2019-01-27T05:57:38.124Z,988.34
2019-01-27T05:58:38.112Z,988.33
2019-01-27T05:59:38.103Z,988.39
2019-01-27T06:00:38.418Z,988.35
2019-01-27T06:01:38.082Z,988.36
2019-01-27T06:02:38.068Z,988.35
2019-01-27T06:03:38.059Z,988.32
2019-01-27T06:04:38.046Z,988.32
2019-01-27T06:05:38.037Z,988.27
2019-01-27T06:06:38.034Z,988.28
2019-01-27T06:07:38.014Z,988.26
2019-01-27T06:08:38.002Z,988.24
2019-01-27T06:09:37.990Z,988.22
2019-01-27T06:10:37.986Z,988.21
2019-01-27T06:11:37.971Z,988.23
2019-01-27T06:12:37.978Z,988.18
2019-01-27T06:13:37.947Z,988.16
2019-01-27T06:14:37.935Z,988.11
2019-01-27T06:15:37.931Z,988.08
2019-01-27T06:16:37.913Z,988.10
2019-01-27T06:17:37.903Z,988.09
2019-01-27T06:18:38.185Z,988.08
2019-01-27T06:19:37.880Z,988.01
2019-01-27T06:20:37.868Z,988.01
2019-01-27T06:21:37.857Z,988.02
2019-01-27T06:22:37.848Z,988.05
2019-01-27T06:23:37.834Z,988.01
2019-01-27T06:24:37.831Z,988.00
2019-01-27T06:25:37.813Z,987.96
2019-01-27T06:26:37.804Z,987.97
2019-01-27T06:27:37.797Z,987.95
2019-01-27T06:28:37.778Z,987.91
2019-01-27T06:29:37.771Z,987.94
2019-01-27T06:30:37.778Z,987.92
2019-01-27T06:31:37.745Z,987.88
2019-01-27T06:32:37.736Z,987.84
2019-01-27T06:33:37.725Z,987.82
2019-01-27T06:34:37.712Z,987.86
2019-01-27T06:35:37.701Z,987.78
2019-01-27T06:36:38.033Z,987.83
2019-01-27T06:37:37.679Z,987.82
2019-01-27T06:38:37.671Z,987.85
2019-01-27T06:39:37.660Z,987.82
2019-01-27T06:40:37.647Z,987.86
2019-01-27T06:41:37.636Z,987.86
2019-01-27T06:42:37.633Z,987.86
2019-01-27T06:43:37.613Z,987.82
2019-01-27T06:44:37.602Z,987.82
2019-01-27T06:45:37.593Z,987.79
2019-01-27T06:46:37.579Z,987.73
2019-01-27T06:47:37.568Z,987.70
2019-01-27T06:48:37.565Z,987.69
2019-01-27T06:49:37.545Z,987.72
2019-01-27T06:50:37.535Z,987.73
2019-01-27T06:51:37.526Z,987.72
2019-01-27T06:52:37.515Z,987.72
2019-01-27T06:53:37.500Z,987.71
2019-01-27T06:54:37.764Z,987.71
2019-01-27T06:55:37.479Z,987.69
2019-01-27T06:56:37.467Z,987.69
2019-01-27T06:57:37.460Z,987.64
2019-01-27T06:58:37.446Z,987.64
2019-01-27T06:59:37.435Z,987.57
2019-01-27T07:00:37.430Z,987.66
2019-01-27T07:01:37.413Z,987.62
2019-01-27T07:02:37.401Z,987.64
2019-01-27T07:03:37.389Z,987.64
2019-01-27T07:04:37.379Z,987.59
2019-01-27T07:05:37.367Z,987.63
2019-01-27T07:06:37.377Z,987.63
2019-01-27T07:07:37.347Z,987.61
2019-01-27T07:08:37.333Z,987.59
2019-01-27T07:09:37.327Z,987.56
2019-01-27T07:10:37.313Z,987.53
2019-01-27T07:11:37.302Z,987.50
2019-01-27T07:12:37.615Z,987.55
2019-01-27T07:13:37.277Z,987.51
2019-01-27T07:14:37.268Z,987.52
2019-01-27T07:15:37.255Z,987.48
2019-01-27T07:16:37.245Z,987.53
2019-01-27T07:17:37.234Z,987.50
2019-01-27T07:18:37.232Z,987.49
2019-01-27T07:19:37.212Z,987.50
2019-01-27T07:20:37.200Z,987.49
2019-01-27T07:21:37.190Z,987.52
2019-01-27T07:22:37.179Z,987.52
2019-01-27T07:23:37.167Z,987.48
2019-01-27T07:24:37.164Z,987.45
2019-01-27T07:25:37.144Z,987.46
2019-01-27T07:26:37.133Z,987.41
2019-01-27T07:27:37.122Z,987.46
2019-01-27T07:28:37.116Z,987.38
2019-01-27T07:29:37.725Z,987.41
2019-01-27T07:30:37.374Z,987.40
2019-01-27T07:31:37.081Z,987.38
2019-01-27T07:32:37.068Z,987.40
2019-01-27T07:33:37.056Z,987.37
2019-01-27T07:34:37.046Z,987.39
2019-01-27T07:35:37.034Z,987.34
2019-01-27T07:36:37.030Z,987.35
2019-01-27T07:37:37.012Z,987.30
2019-01-27T07:38:37.001Z,987.27
2019-01-27T07:39:36.991Z,987.27
2019-01-27T07:40:36.977Z,987.27
2019-01-27T07:41:36.967Z,987.25
2019-01-27T07:42:36.977Z,987.24
2019-01-27T07:43:36.947Z,987.23
2019-01-27T07:44:36.935Z,987.20
2019-01-27T07:45:36.923Z,987.18
2019-01-27T07:46:36.912Z,987.17
2019-01-27T07:47:36.901Z,987.18
2019-01-27T07:48:37.214Z,987.13
2019-01-27T07:49:36.878Z,987.16
2019-01-27T07:50:36.870Z,987.10
2019-01-27T07:51:36.855Z,987.09
2019-01-27T07:52:36.844Z,987.12
2019-01-27T07:53:36.834Z,987.13
2019-01-27T07:54:36.828Z,987.13
2019-01-27T07:55:36.811Z,987.12
2019-01-27T07:56:36.799Z,987.09
2019-01-27T07:57:36.788Z,987.02
2019-01-27T07:58:36.777Z,987.00
2019-01-27T07:59:36.766Z,986.97
2019-01-27T08:00:36.763Z,986.98
2019-01-27T08:01:36.746Z,986.94
2019-01-27T08:02:36.734Z,986.92
2019-01-27T08:03:36.721Z,986.92
2019-01-27T08:04:36.711Z,986.90
2019-01-27T08:05:36.699Z,986.97
2019-01-27T08:06:36.985Z,986.94
2019-01-27T08:07:36.678Z,986.95
2019-01-27T08:08:36.667Z,986.94
2019-01-27T08:09:36.654Z,986.94
2019-01-27T08:10:36.658Z,986.91
2019-01-27T08:11:36.633Z,986.91
2019-01-27T08:12:36.627Z,986.93
2019-01-27T08:13:36.611Z,986.94
2019-01-27T08:14:36.599Z,986.90
2019-01-27T08:15:36.591Z,986.92
2019-01-27T08:16:36.577Z,986.90
2019-01-27T08:17:36.565Z,986.85
2019-01-27T08:18:36.575Z,986.85
2019-01-27T08:19:36.546Z,986.87
2019-01-27T08:20:36.544Z,986.83
2019-01-27T08:21:36.521Z,986.80
2019-01-27T08:22:36.509Z,986.79
2019-01-27T08:23:36.499Z,986.79
2019-01-27T08:24:36.811Z,986.80
2019-01-27T08:25:36.477Z,986.81
2019-01-27T08:26:36.467Z,986.79
2019-01-27T08:27:36.455Z,986.78
2019-01-27T08:28:36.444Z,986.75
2019-01-27T08:29:36.434Z,986.70
2019-01-27T08:30:36.428Z,986.72
2019-01-27T08:31:36.410Z,986.75
2019-01-27T08:32:36.399Z,986.73
2019-01-27T08:33:36.388Z,986.73
2019-01-27T08:34:36.377Z,986.73
2019-01-27T08:35:36.366Z,986.73
2019-01-27T08:36:36.362Z,986.68
2019-01-27T08:37:36.342Z,986.73
2019-01-27T08:38:36.333Z,986.74
2019-01-27T08:39:36.322Z,986.72
2019-01-27T08:40:36.312Z,986.72
2019-01-27T08:41:36.299Z,986.71
2019-01-27T08:42:36.559Z,986.68
2019-01-27T08:43:36.276Z,986.68
2019-01-27T08:44:36.264Z,986.66
2019-01-27T08:45:36.253Z,986.66
2019-01-27T08:46:36.243Z,986.61
2019-01-27T08:47:36.231Z,986.64
2019-01-27T08:48:36.227Z,986.55
2019-01-27T08:49:36.210Z,986.58
2019-01-27T08:50:36.199Z,986.56
2019-01-27T08:51:36.187Z,986.57
2019-01-27T08:52:36.177Z,986.54
2019-01-27T08:53:36.166Z,986.52
2019-01-27T08:54:36.174Z,986.50
2019-01-27T08:55:36.143Z,986.53
2019-01-27T08:56:36.133Z,986.54
2019-01-27T08:57:36.120Z,986.53
2019-01-27T08:58:36.108Z,986.58
2019-01-27T08:59:36.097Z,986.53
2019-01-27T09:00:36.409Z,986.51
2019-01-27T09:01:36.076Z,986.51
2019-01-27T09:02:36.066Z,986.51
2019-01-27T09:03:36.053Z,986.51
2019-01-27T09:04:36.043Z,986.50
2019-01-27T09:05:36.042Z,986.51
2019-01-27T09:06:36.062Z,986.48
2019-01-27T09:07:36.008Z,986.48
2019-01-27T09:08:36.001Z,986.45
2019-01-27T09:09:35.986Z,986.45
2019-01-27T09:10:35.978Z,986.43
2019-01-27T09:11:35.965Z,986.44
2019-01-27T09:12:35.974Z,986.42
2019-01-27T09:13:35.942Z,986.42
2019-01-27T09:14:35.930Z,986.42
2019-01-27T09:15:35.921Z,986.39
2019-01-27T09:16:35.910Z,986.41
2019-01-27T09:17:35.897Z,986.38
2019-01-27T09:18:36.174Z,986.39
2019-01-27T09:19:35.877Z,986.37
2019-01-27T09:20:35.868Z,986.39
2019-01-27T09:21:35.854Z,986.35
2019-01-27T09:22:35.844Z,986.34
2019-01-27T09:23:35.835Z,986.34
2019-01-27T09:24:35.828Z,986.30
2019-01-27T09:25:35.810Z,986.31
2019-01-27T09:26:35.798Z,986.29
2019-01-27T09:27:35.787Z,986.29
2019-01-27T09:28:35.777Z,986.25
2019-01-27T09:29:35.765Z,986.26
2019-01-27T09:30:35.761Z,986.26
2019-01-27T09:31:35.747Z,986.23
2019-01-27T09:32:35.732Z,986.24
2019-01-27T09:33:35.720Z,986.22
2019-01-27T09:34:35.709Z,986.21
2019-01-27T09:35:35.698Z,986.21
2019-01-27T09:36:35.695Z,986.17
2019-01-27T09:37:35.676Z,986.16
2019-01-27T09:38:35.664Z,986.14
2019-01-27T09:39:35.653Z,986.12
2019-01-27T09:40:35.642Z,986.16
2019-01-27T09:41:35.631Z,986.12
2019-01-27T09:42:35.904Z,986.16
2019-01-27T09:43:35.610Z,986.15
2019-01-27T09:44:35.605Z,986.12
2019-01-27T09:45:35.587Z,986.16
2019-01-27T09:46:35.576Z,986.10
2019-01-27T09:47:35.566Z,986.10
2019-01-27T09:48:35.574Z,986.09
2019-01-27T09:49:35.543Z,986.07
2019-01-27T09:50:35.531Z,986.04
2019-01-27T09:51:35.520Z,986.04
2019-01-27T09:52:35.509Z,986.07
2019-01-27T09:53:35.499Z,986.04
2019-01-27T09:54:35.493Z,986.03
2019-01-27T09:55:35.475Z,986.00
2019-01-27T09:56:35.464Z,986.02
2019-01-27T09:57:35.454Z,986.02
2019-01-27T09:58:35.443Z,986.05
2019-01-27T09:59:35.431Z,986.02
2019-01-27T10:00:35.706Z,985.98
2019-01-27T10:01:35.407Z,986.00
2019-01-27T10:02:35.402Z,986.00
2019-01-27T10:03:35.387Z,985.96
2019-01-27T10:04:35.376Z,985.97
2019-01-27T10:05:35.364Z,985.95
2019-01-27T10:06:35.360Z,985.97
2019-01-27T10:07:35.342Z,985.99
2019-01-27T10:08:35.331Z,985.96
2019-01-27T10:09:35.319Z,985.94
2019-01-27T10:10:35.308Z,985.94
2019-01-27T10:11:35.297Z,985.93
2019-01-27T10:12:35.297Z,985.93
2019-01-27T10:13:35.276Z,985.91
2019-01-27T10:14:35.264Z,985.90
2019-01-27T10:15:35.254Z,985.86
2019-01-27T10:16:35.241Z,985.83
2019-01-27T10:17:35.230Z,985.87
2019-01-27T10:18:35.227Z,985.85
2019-01-27T10:19:35.208Z,985.82
2019-01-27T10:20:35.199Z,985.80
2019-01-27T10:21:35.187Z,985.80
2019-01-27T10:22:35.176Z,985.80
2019-01-27T10:23:35.164Z,985.77
2019-01-27T10:24:35.164Z,985.77
2019-01-27T10:25:35.143Z,985.76
2019-01-27T10:26:35.130Z,985.76
2019-01-27T10:27:35.120Z,985.75
2019-01-27T10:28:35.108Z,985.74
2019-01-27T10:29:35.097Z,985.72
2019-01-27T10:30:35.107Z,985.74
2019-01-27T10:31:35.075Z,985.65
2019-01-27T10:32:35.063Z,985.66
2019-01-27T10:33:35.052Z,985.67
2019-01-27T10:34:35.043Z,985.65
2019-01-27T10:35:35.031Z,985.67
2019-01-27T10:36:35.309Z,985.66
2019-01-27T10:37:35.010Z,985.62
2019-01-27T10:38:34.997Z,985.66
2019-01-27T10:39:34.986Z,985.60
2019-01-27T10:40:39.618Z,985.59
2019-01-27T10:41:34.965Z,985.63
2019-01-27T10:42:35.241Z,985.61
2019-01-27T10:43:34.941Z,985.65
2019-01-27T10:44:34.932Z,985.61
2019-01-27T10:45:34.919Z,985.59
2019-01-27T10:46:34.909Z,985.63
2019-01-27T10:47:34.898Z,985.60
2019-01-27T10:48:34.908Z,985.59
2019-01-27T10:49:34.877Z,985.58
2019-01-27T10:50:34.865Z,985.55
2019-01-27T10:51:34.855Z,985.52
2019-01-27T10:52:34.841Z,985.53
2019-01-27T10:53:35.047Z,985.52
2019-01-27T10:54:34.830Z,985.51
2019-01-27T10:55:34.808Z,985.54
2019-01-27T10:56:34.803Z,985.51
2019-01-27T10:57:34.786Z,985.50
2019-01-27T10:58:34.776Z,985.52
2019-01-27T10:59:34.765Z,985.49
2019-01-27T11:00:34.762Z,985.41
2019-01-27T11:01:34.743Z,985.41
2019-01-27T11:02:37.231Z,985.37
2019-01-27T11:03:34.720Z,985.37
2019-01-27T11:04:34.710Z,985.35
2019-01-27T11:05:34.698Z,985.32
2019-01-27T11:06:35.010Z,985.28
2019-01-27T11:07:34.675Z,985.28
2019-01-27T11:08:34.664Z,985.26
2019-01-27T11:09:34.654Z,985.18
2019-01-27T11:10:34.642Z,985.23
2019-01-27T11:11:34.633Z,985.22
2019-01-27T11:12:34.629Z,985.16
2019-01-27T11:13:34.611Z,985.16
2019-01-27T11:14:34.598Z,985.17
2019-01-27T11:15:34.588Z,985.24
2019-01-27T11:16:34.575Z,985.23
2019-01-27T11:17:34.565Z,985.22
2019-01-27T11:18:34.562Z,985.17
2019-01-27T11:19:34.542Z,985.13
2019-01-27T11:20:39.889Z,985.13
2019-01-27T11:21:35.519Z,985.12
2019-01-27T11:22:34.510Z,985.10
2019-01-27T11:23:34.498Z,985.10
2019-01-27T11:24:34.761Z,985.14
2019-01-27T11:25:34.475Z,985.07
2019-01-27T11:26:34.464Z,985.06
2019-01-27T11:27:35.014Z,985.07
2019-01-27T11:28:34.442Z,985.05
2019-01-27T11:29:34.432Z,985.02
2019-01-27T11:30:34.710Z,985.02
2019-01-27T11:31:34.409Z,985.01
2019-01-27T11:32:34.398Z,984.96
2019-01-27T11:33:34.386Z,984.94
2019-01-27T11:34:34.375Z,984.95
2019-01-27T11:35:34.367Z,984.95
2019-01-27T11:36:34.641Z,984.90
2019-01-27T11:37:34.343Z,984.87
2019-01-27T11:38:34.330Z,984.85
2019-01-27T11:39:35.715Z,984.81
2019-01-27T11:40:34.311Z,984.80
2019-01-27T11:41:34.298Z,984.81
2019-01-27T11:42:34.573Z,984.79
2019-01-27T11:43:34.275Z,984.78
2019-01-27T11:44:34.264Z,984.79
2019-01-27T11:45:34.254Z,984.75
2019-01-27T11:46:34.242Z,984.72
2019-01-27T11:47:34.230Z,984.71
2019-01-27T11:48:34.541Z,984.67
2019-01-27T11:49:34.209Z,984.66
2019-01-27T11:50:34.198Z,984.65
2019-01-27T11:51:34.186Z,984.63
2019-01-27T11:52:34.175Z,984.62
2019-01-27T11:53:34.164Z,984.62
2019-01-27T11:54:34.175Z,984.60
2019-01-27T11:55:34.146Z,984.67
2019-01-27T11:56:34.131Z,984.69
2019-01-27T11:57:34.119Z,984.68
2019-01-27T11:58:34.108Z,984.72
2019-01-27T11:59:34.098Z,984.66
2019-01-27T12:00:34.096Z,984.67
2019-01-27T12:01:34.074Z,984.60
2019-01-27T12:02:34.063Z,984.59
2019-01-27T12:03:34.053Z,984.55
2019-01-27T12:04:34.041Z,984.55
2019-01-27T12:05:34.029Z,984.53
2019-01-27T12:06:34.027Z,984.54
2019-01-27T12:07:34.009Z,984.51
2019-01-27T12:08:33.997Z,984.52
2019-01-27T12:09:33.986Z,984.53
2019-01-27T12:10:33.977Z,984.56
2019-01-27T12:11:33.963Z,984.53
2019-01-27T12:12:34.238Z,984.48
2019-01-27T12:13:33.941Z,984.46
2019-01-27T12:14:33.931Z,984.46
2019-01-27T12:15:33.919Z,984.50
2019-01-27T12:16:33.908Z,984.48
2019-01-27T12:17:33.896Z,984.48
2019-01-27T12:18:34.159Z,984.42
2019-01-27T12:19:33.879Z,984.43
2019-01-27T12:20:33.863Z,984.42
2019-01-27T12:21:33.853Z,984.38
2019-01-27T12:22:33.841Z,984.39
2019-01-27T12:23:33.830Z,984.39
2019-01-27T12:24:34.150Z,984.37
2019-01-27T12:25:33.807Z,984.38
2019-01-27T12:26:33.796Z,984.36
2019-01-27T12:27:33.785Z,984.37
2019-01-27T12:28:33.773Z,984.41